首页
METAR-TAF:

METAR-TAF

机场 :

Hurlburt Field

Mary Esther, 佛罗里达州, 美国

纬度: 30-25N, 经度: 086-41W, 海拔: 12米

当前天气观测

该预报发布于36分钟前的04:56 UTC
风速4节,风向西转西南
温度 29°C
湿度 74%
气压 1018 hPa
能見度: 16.1公里
少量云层高于20000英尺

METAR: KHRT 180456Z 25004KT 10SM FEW200 29/24 A3007 RMK AO2A SLP184 T02930244 $

时间: 00:32 (05:32 UTC)

预报

该预报发布于3小时和32分钟前的02:00 UTC
预报有效从18日的 02点(UTC)到 19日的 08点(UTC)
风速7节,风向西南
能见度10公里或以上
散云层高于20000英尺
成为
从 18日的 06点(UTC)到 18日的 07点(UTC)
风速3节,风向多变
能見度: 1816
少量云层高于3500英尺
成为
从 18日的 19点(UTC)到 18日的 20点(UTC)
风速9节,风向西转西南
能见度10公里或以上
散云层高于3500英尺
散云层高于20000英尺
成为
从 19日的 05点(UTC)到 19日的 06点(UTC)
风速3节,风向南转西南
能见度10公里或以上
散云层高于25000英尺

TAF: KHRT 180200Z 1802/1908 22007KT 9999 SCT200 QNH3003INS BECMG 1806/1807 VRB03KT 9999 FEW035 QNH3006INS WND21006KT AFT 1816 BECMG 1819/1820 24009KT 9999 SCT035 SCT200 QNH3010INS BECMG 1905/1906 21003KT 9999 SCT250 QNH3009INS TX33/1819Z TN25/1810Z

超过4000个机场的气象观测和天气预报(METAR&TAF报告)。

可查询的气象台以黄色和红色小点在地图上表示。

将鼠标移到小点上方,可查看气象台名称。

然后点击查看天气观测和预报。

如需切换地图:点击带黑十字的绿色按钮放大地图;点击带横线的绿色按钮缩小地图;或者点击绿色箭头查看邻近地区的地图。


METAR-TAF: